KHSB/HSB METAR and TAF weather

Enter ICAO airport designator
Station Type Date Time Source
KHSB METAR 2020/06/02 16:35 UTC NOAA

KHSB 021635Z AUTO 24009KT 10SM CLR 29/12 A3009 RMK AO2 T02850115


Station Type Date Time Source
KHSB Decoded METAR 2020/06/02 16:35 UTC NOAA

Harrisburg, Harrisburg-Raleigh Airport, IL, United States (KHSB) 37-48-41N 088-32-57W
Jun 02, 2020 - 12:35 PM EDT / 2020.06.02 1635 UTC
Wind: from the WSW (240 degrees) at 10 MPH (9 KT):0
Visibility: 10 mile(s):0
Sky conditions: clear
Temperature: 83.3 F (28.5 C)
Dew Point: 52.7 F (11.5 C)
Relative Humidity: 34%
Pressure (altimeter): 30.09 in. Hg (1018 hPa)
ob: KHSB 021635Z AUTO 24009KT 10SM CLR 29/12 A3009 RMK AO2 T02850115
cycle: 16

Station Type Date Time Source
KHSB TAF UTC NOAA

Error!

Example: see airport list